createdAt,value
2022-08-27T00:00:55.163Z,21.57
2022-08-27T00:06:49.930Z,21.50
2022-08-27T00:12:37.133Z,21.41
2022-08-27T00:18:32.316Z,21.32
2022-08-27T00:24:24.237Z,21.25
2022-08-27T00:30:10.949Z,21.20
2022-08-27T00:35:42.851Z,21.14
2022-08-27T00:41:32.273Z,21.11
2022-08-27T00:47:21.636Z,21.06
2022-08-27T00:52:45.994Z,21.06
2022-08-27T00:58:23.912Z,21.10
2022-08-27T01:04:22.923Z,21.11
2022-08-27T01:10:13.962Z,21.10
2022-08-27T01:16:00.227Z,21.05
2022-08-27T01:22:21.954Z,21.01
2022-08-27T01:27:50.108Z,20.95
2022-08-27T01:33:00.908Z,20.91
2022-08-27T01:38:31.110Z,20.87
2022-08-27T01:43:56.250Z,20.82
2022-08-27T01:49:06.400Z,20.78
2022-08-27T01:54:22.979Z,20.76
2022-08-27T01:59:57.581Z,20.76
2022-08-27T02:05:21.620Z,20.74
2022-08-27T02:10:36.607Z,20.72
2022-08-27T02:15:46.780Z,20.65
2022-08-27T02:21:01.889Z,20.57
2022-08-27T02:26:15.415Z,20.50
2022-08-27T02:31:34.664Z,20.45
2022-08-27T02:36:57.991Z,20.37
2022-08-27T02:42:11.618Z,20.28
2022-08-27T02:47:25.885Z,20.19
2022-08-27T02:52:37.833Z,20.06
2022-08-27T02:57:55.856Z,19.94
2022-08-27T03:03:28.760Z,19.86
2022-08-27T03:08:52.800Z,19.79
2022-08-27T03:14:22.485Z,19.69
2022-08-27T03:19:43.489Z,19.65
2022-08-27T03:25:14.807Z,19.65
2022-08-27T03:31:02.728Z,19.62
2022-08-27T03:36:24.030Z,19.60
2022-08-27T03:42:00.599Z,19.56
2022-08-27T03:47:38.347Z,19.48
2022-08-27T03:53:25.205Z,19.44
2022-08-27T03:59:11.074Z,19.50
2022-08-27T04:04:51.139Z,19.54
2022-08-27T04:10:28.367Z,19.50
2022-08-27T04:16:12.586Z,19.39
2022-08-27T04:21:46.822Z,19.32
2022-08-27T04:33:19.356Z,19.42
2022-08-27T04:38:59.843Z,19.61
2022-08-27T04:44:34.178Z,19.90
2022-08-27T04:49:43.125Z,20.21
2022-08-27T04:55:16.837Z,20.62
2022-08-27T05:00:34.029Z,21.03
2022-08-27T05:05:51.323Z,21.44
2022-08-27T05:11:24.246Z,21.86
2022-08-27T05:16:39.032Z,22.20
2022-08-27T05:21:55.305Z,22.53
2022-08-27T05:27:15.049Z,22.85
2022-08-27T05:32:29.727Z,23.16
2022-08-27T05:37:38.701Z,23.48
2022-08-27T05:43:23.030Z,23.71
2022-08-27T05:48:31.672Z,23.92
2022-08-27T05:53:47.390Z,24.19
2022-08-27T05:59:13.133Z,24.45
2022-08-27T06:04:22.950Z,24.80
2022-08-27T06:09:34.276Z,25.04
2022-08-27T06:14:43.405Z,25.23
2022-08-27T06:19:51.569Z,25.59
2022-08-27T06:25:00.781Z,25.96
2022-08-27T06:30:33.111Z,26.17
2022-08-27T06:36:17.762Z,26.49
2022-08-27T06:41:36.352Z,26.93
2022-08-27T06:47:49.836Z,27.26
2022-08-27T06:54:14.732Z,27.51
2022-08-27T06:59:41.955Z,27.99
2022-08-27T07:04:56.477Z,28.47
2022-08-27T07:10:09.580Z,29.19
2022-08-27T07:15:18.978Z,29.83
2022-08-27T07:20:29.582Z,30.55
2022-08-27T07:25:37.402Z,31.34
2022-08-27T07:30:46.752Z,32.05
2022-08-27T07:35:56.604Z,32.62
2022-08-27T07:41:18.460Z,33.07
2022-08-27T07:46:39.239Z,33.32
2022-08-27T07:51:50.600Z,33.48
2022-08-27T07:56:59.548Z,33.74
2022-08-27T08:02:09.590Z,33.87
2022-08-27T08:07:17.687Z,34.17
2022-08-27T08:12:26.607Z,34.30
2022-08-27T08:17:51.764Z,34.57
2022-08-27T08:23:01.471Z,34.67
2022-08-27T08:28:13.010Z,34.43
2022-08-27T08:33:20.993Z,34.64
2022-08-27T08:38:31.483Z,34.95
2022-08-27T08:43:51.966Z,34.92
2022-08-27T08:49:12.035Z,34.56
2022-08-27T08:54:24.820Z,34.04
2022-08-27T08:59:36.127Z,33.65
2022-08-27T09:04:45.502Z,33.19
2022-08-27T09:10:04.057Z,32.64
2022-08-27T09:15:28.848Z,32.29
2022-08-27T09:20:39.247Z,31.96
2022-08-27T09:25:49.690Z,31.81
2022-08-27T09:31:06.073Z,31.74
2022-08-27T09:36:14.754Z,31.68
2022-08-27T09:41:29.407Z,31.90
2022-08-27T09:46:52.940Z,32.09
2022-08-27T09:52:01.442Z,32.03
2022-08-27T09:57:15.867Z,31.91
2022-08-27T10:02:56.241Z,31.72
2022-08-27T10:08:25.987Z,31.74
2022-08-27T10:13:42.381Z,31.91
2022-08-27T10:19:45.676Z,31.99
2022-08-27T15:30:41.636Z,31.47
2022-08-27T15:36:07.307Z,31.40
2022-08-27T15:41:19.698Z,31.35
2022-08-27T15:46:32.511Z,31.30
2022-08-27T15:51:53.197Z,31.40
2022-08-27T15:57:05.660Z,31.50
2022-08-27T16:02:25.754Z,31.61
2022-08-27T16:07:44.977Z,31.61
2022-08-27T16:12:55.787Z,31.56
2022-08-27T16:18:09.931Z,31.44
2022-08-27T16:24:09.437Z,31.27
2022-08-27T16:29:21.224Z,31.14
2022-08-27T16:34:40.171Z,31.08
2022-08-27T16:46:39.841Z,30.99
2022-08-27T16:52:01.026Z,30.95
2022-08-27T16:57:09.716Z,30.86
2022-08-27T17:02:30.241Z,30.71
2022-08-27T17:07:41.353Z,30.52
2022-08-27T17:12:54.431Z,30.33
2022-08-27T17:18:08.622Z,30.19
2022-08-27T17:23:27.845Z,30.07
2022-08-27T17:28:47.647Z,30.05
2022-08-27T17:41:06.358Z,29.86
2022-08-27T17:46:24.909Z,29.67
2022-08-27T17:51:40.747Z,29.47
2022-08-27T17:56:51.893Z,29.21
2022-08-27T18:02:05.317Z,29.00
2022-08-27T18:07:25.376Z,28.76
2022-08-27T18:12:33.526Z,28.49
2022-08-27T18:17:44.458Z,28.24
2022-08-27T18:22:55.139Z,27.97
2022-08-27T18:28:06.793Z,27.71
2022-08-27T18:33:36.019Z,27.38
2022-08-27T18:38:47.908Z,27.04
2022-08-27T18:44:06.089Z,26.73
2022-08-27T18:49:36.075Z,26.45
2022-08-27T18:54:44.940Z,26.22
2022-08-27T18:59:53.511Z,25.99
2022-08-27T19:05:14.276Z,25.74
2022-08-27T19:10:23.449Z,25.52
2022-08-27T19:15:35.309Z,25.29
2022-08-27T19:20:57.339Z,25.07
2022-08-27T19:26:20.716Z,24.86
2022-08-27T19:31:30.097Z,24.68
2022-08-27T19:37:19.852Z,24.52
2022-08-27T19:42:55.755Z,24.36
2022-08-27T19:48:26.877Z,24.18
2022-08-27T19:53:35.857Z,23.97
2022-08-27T19:58:44.973Z,23.70
2022-08-27T20:03:53.726Z,23.43
2022-08-27T20:09:18.877Z,23.16
2022-08-27T20:14:36.813Z,22.92
2022-08-27T20:19:47.857Z,22.73
2022-08-27T20:25:05.529Z,22.57
2022-08-27T20:30:19.401Z,22.45
2022-08-27T20:35:34.550Z,22.32
2022-08-27T20:40:51.123Z,22.21
2022-08-27T20:46:03.321Z,22.13
2022-08-27T20:51:12.813Z,22.06
2022-08-27T20:56:43.121Z,21.90
2022-08-27T21:02:06.057Z,21.74
2022-08-27T21:07:15.555Z,21.61
2022-08-27T21:12:26.895Z,21.52
2022-08-27T21:17:46.133Z,21.45
2022-08-27T21:22:58.615Z,21.35
2022-08-27T21:28:08.325Z,21.26
2022-08-27T21:33:36.105Z,21.18
2022-08-27T21:39:12.897Z,21.14
2022-08-27T21:44:22.433Z,21.10
2022-08-27T21:49:33.009Z,21.02
2022-08-27T21:54:45.229Z,20.91
2022-08-27T21:59:54.040Z,20.80
2022-08-27T22:05:03.380Z,20.66
2022-08-27T22:10:22.814Z,20.51
2022-08-27T22:15:34.321Z,20.40
2022-08-27T22:20:54.016Z,20.33
2022-08-27T22:26:13.583Z,20.30
2022-08-27T22:31:24.775Z,20.26
2022-08-27T22:36:55.204Z,20.22
2022-08-27T22:42:02.458Z,20.25
2022-08-27T22:47:32.632Z,20.22
2022-08-27T22:53:02.605Z,20.11
2022-08-27T22:58:30.929Z,19.96
2022-08-27T23:03:39.588Z,19.84
2022-08-27T23:08:48.002Z,19.72
2022-08-27T23:13:56.292Z,19.62
2022-08-27T23:19:13.465Z,19.59
2022-08-27T23:24:30.247Z,19.58
2022-08-27T23:29:40.122Z,19.58
2022-08-27T23:34:52.142Z,19.54
2022-08-27T23:40:12.942Z,19.48
2022-08-27T23:45:31.718Z,19.40
2022-08-27T23:50:40.844Z,19.28
2022-08-27T23:55:48.787Z,19.18
